Time;durP1;ratioP1;P1;durP2;ratioP2;P2;SDS_P1;SDS_P2;PMS_P1;PMS_P2;Temp;Humidity;BMP_temperature;BMP_pressure;BME280_temperature;BME280_humidity;BME280_pressure;Samples;Min_cycle;Max_cycle;Signal;HPM_P1;HPM_P2
2021/10/13 00:01:11;;;;;;;43.63;40.93;;;;;;;12.97;100.00;102805.63;1877453;75;26241;-69
2021/10/13 00:03:41;;;;;;;45.20;42.10;;;;;;;12.97;100.00;102801.99;1836512;77;26793;-69
2021/10/13 00:06:11;;;;;;;45.40;42.60;;;;;;;13.07;100.00;102797.44;1831604;78;26260;-69
2021/10/13 00:08:41;;;;;;;46.70;43.70;;;;;;;13.04;100.00;102797.11;1833635;77;26230;-69
2021/10/13 00:11:11;;;;;;;47.17;44.13;;;;;;;13.03;100.00;102795.41;1833908;78;26213;-69
2021/10/13 00:13:41;;;;;;;45.07;42.27;;;;;;;13.04;100.00;102794.32;1845258;77;26351;-69
2021/10/13 00:16:13;;;;;;;46.50;43.07;;;;;;;12.98;100.00;102796.72;1850363;77;26213;-69
2021/10/13 00:18:43;;;;;;;47.13;44.23;;;;;;;12.98;100.00;102795.33;1847124;77;26303;-69
2021/10/13 00:21:13;;;;;;;45.27;42.37;;;;;;;12.97;100.00;102803.39;1901306;74;26209;-70
2021/10/13 00:23:44;;;;;;;45.50;42.60;;;;;;;12.87;100.00;102802.70;1803482;79;26346;-69
2021/10/13 00:26:14;;;;;;;47.37;43.93;;;;;;;12.91;100.00;102808.06;1876680;75;26862;-69
2021/10/13 00:28:44;;;;;;;45.20;42.10;;;;;;;12.83;100.00;102809.03;1874306;76;26768;-69
2021/10/13 00:31:14;;;;;;;46.60;43.60;;;;;;;12.64;100.00;102813.44;1808292;78;26263;-69
2021/10/13 00:33:44;;;;;;;48.80;45.77;;;;;;;12.54;100.00;102815.18;1845468;77;26786;-69
2021/10/13 00:36:14;;;;;;;48.87;45.60;;;;;;;12.48;100.00;102810.08;1872522;76;26308;-69
2021/10/13 00:38:44;;;;;;;47.37;44.30;;;;;;;12.34;100.00;102808.69;1805019;78;27044;-69
2021/10/13 00:41:14;;;;;;;47.80;44.90;;;;;;;12.35;100.00;102808.14;1830329;77;26671;-69
2021/10/13 00:43:45;;;;;;;47.67;44.60;;;;;;;12.30;100.00;102807.50;1881006;76;26716;-69
2021/10/13 00:46:15;;;;;;;48.17;45.17;;;;;;;12.16;100.00;102811.12;1785319;78;26334;-70
2021/10/13 00:48:45;;;;;;;47.60;44.30;;;;;;;11.97;100.00;102807.39;1814690;79;26206;-69
2021/10/13 00:51:17;;;;;;;46.20;43.40;;;;;;;11.92;100.00;102810.06;1814704;78;26306;-69
2021/10/13 00:53:47;;;;;;;46.40;43.20;;;;;;;11.93;100.00;102827.08;1814903;78;26300;-69
2021/10/13 00:56:17;;;;;;;45.67;42.77;;;;;;;11.83;100.00;102829.09;1814284;78;26222;-69
2021/10/13 00:58:47;;;;;;;47.23;44.00;;;;;;;11.75;100.00;102834.50;1814129;78;26789;-69
2021/10/13 01:01:21;;;;;;;47.67;44.37;;;;;;;11.65;100.00;102834.23;1814080;79;26229;-69
2021/10/13 01:06:54;;;;;;;46.37;43.37;;;;;;;11.51;100.00;102830.00;1940992;74;33043;-69
2021/10/13 01:12:26;;;;;;;46.83;43.93;;;;;;;11.21;100.00;102824.56;1940741;74;32970;-69
2021/10/13 01:15:00;;;;;;;45.93;42.83;;;;;;;11.30;100.00;102830.08;1904776;75;26541;-69
2021/10/13 01:17:35;;;;;;;47.77;44.77;;;;;;;11.42;100.00;102831.48;1904778;75;26755;-69
2021/10/13 01:20:11;;;;;;;45.70;42.67;;;;;;;11.55;100.00;102818.68;1904796;75;26280;-69
2021/10/13 01:26:29;;;;;;;44.13;41.10;;;;;;;11.56;100.00;102799.50;2009580;71;32918;-69
2021/10/13 01:31:58;;;;;;;45.10;42.23;;;;;;;11.77;100.00;102805.84;1940906;74;33585;-69
2021/10/13 01:37:28;;;;;;;47.00;44.07;;;;;;;11.83;100.00;102809.59;1940776;74;33042;-69
2021/10/13 01:43:15;;;;;;;45.43;42.53;;;;;;;11.84;100.00;102810.76;2010947;71;33371;-69
2021/10/13 01:49:02;;;;;;;45.07;42.17;;;;;;;11.84;100.00;102814.08;2009506;71;32830;-69
2021/10/13 01:54:28;;;;;;;46.60;43.33;;;;;;;11.61;100.00;102808.52;1940682;74;33084;-69
2021/10/13 01:59:57;;;;;;;45.37;42.27;;;;;;;11.72;100.00;102809.09;1940532;74;33129;-69
2021/10/13 02:05:44;;;;;;;45.97;42.83;;;;;;;11.59;100.00;102811.56;2009646;71;33409;-69
2021/10/13 02:11:11;;;;;;;45.67;42.47;;;;;;;11.69;100.00;102815.09;1940932;74;32994;-69
2021/10/13 02:16:38;;;;;;;46.47;43.07;;;;;;;11.48;100.00;102824.93;1940797;74;32988;-68
2021/10/13 02:22:07;;;;;;;46.93;43.47;;;;;;;11.25;100.00;102824.95;1940819;74;33086;-69
2021/10/13 02:27:59;;;;;;;48.40;45.10;;;;;;;11.08;100.00;102837.31;2010269;71;33366;-69
2021/10/13 02:33:43;;;;;;;48.27;45.00;;;;;;;10.93;100.00;102839.72;2009576;71;32901;-69
2021/10/13 02:39:09;;;;;;;49.00;45.53;;;;;;;10.72;100.00;102853.64;1940733;74;33364;-69
2021/10/13 02:44:34;;;;;;;48.90;45.30;;;;;;;10.70;100.00;102848.00;1940894;74;33542;-67
2021/10/13 02:50:05;;;;;;;47.50;44.10;;;;;;;10.71;100.00;102856.66;1940867;74;33053;-69
2021/10/13 02:55:34;;;;;;;57.67;53.47;;;;;;;10.78;100.00;102862.98;1940934;74;33496;-69
2021/10/13 03:01:03;;;;;;;48.50;45.10;;;;;;;10.71;100.00;102861.67;1940912;74;33516;-69
2021/10/13 03:06:32;;;;;;;50.10;46.87;;;;;;;10.62;100.00;102863.09;1940885;74;33543;-69
2021/10/13 03:11:58;;;;;;;53.90;49.97;;;;;;;10.74;100.00;102872.30;1940764;74;32964;-69
2021/10/13 03:17:26;;;;;;;50.30;46.87;;;;;;;10.54;100.00;102862.03;1940782;74;33121;-69
2021/10/13 03:22:53;;;;;;;50.83;47.43;;;;;;;10.45;100.00;102860.13;1940832;74;33523;-69
2021/10/13 03:28:21;;;;;;;50.27;46.77;;;;;;;10.56;100.00;102867.37;1940924;74;33547;-69
2021/10/13 03:34:04;;;;;;;48.40;45.07;;;;;;;10.57;100.00;102869.89;2009757;71;33344;-69
2021/10/13 03:39:35;;;;;;;48.33;45.10;;;;;;;10.48;100.00;102867.16;1940972;74;32977;-69
2021/10/13 03:44:59;;;;;;;48.33;44.93;;;;;;;10.60;100.00;102867.20;1940682;74;33052;-69
2021/10/13 03:50:24;;;;;;;48.93;45.63;;;;;;;10.37;100.00;102861.85;1940884;74;33088;-69
2021/10/13 03:55:49;;;;;;;48.93;45.53;;;;;;;10.35;100.00;102858.48;1940725;74;33062;-69
2021/10/13 04:01:33;;;;;;;50.23;46.73;;;;;;;10.38;100.00;102842.72;1954369;71;40371;-69
2021/10/13 04:07:19;;;;;;;49.23;45.67;;;;;;;10.52;100.00;102858.66;2009812;71;32908;-69
2021/10/13 04:12:44;;;;;;;48.07;44.80;;;;;;;10.03;100.00;102856.40;1940934;74;33534;-69
2021/10/13 04:18:10;;;;;;;49.53;46.03;;;;;;;10.19;100.00;102852.69;1940917;74;33509;-69
2021/10/13 04:23:34;;;;;;;49.07;45.77;;;;;;;10.31;100.00;102849.45;1907542;75;33071;-69
2021/10/13 04:28:58;;;;;;;53.10;49.33;;;;;;;10.10;100.00;102842.41;1940662;74;32983;-69
2021/10/13 04:34:23;;;;;;;49.07;45.77;;;;;;;10.05;100.00;102850.63;1940787;74;32980;-69
2021/10/13 04:39:48;;;;;;;50.33;47.00;;;;;;;9.82;100.00;102858.26;1940879;74;33116;-69
2021/10/13 04:45:12;;;;;;;49.77;46.37;;;;;;;9.48;100.00;102865.25;1940761;74;32979;-69
2021/10/13 04:50:37;;;;;;;48.80;45.50;;;;;;;9.60;100.00;102857.01;1940888;74;33455;-69
2021/10/13 04:56:01;;;;;;;50.40;47.03;;;;;;;9.83;100.00;102864.13;1940718;74;32976;-69
2021/10/13 05:01:26;;;;;;;51.27;47.90;;;;;;;9.58;100.00;102868.89;1940969;74;32989;-68
2021/10/13 05:06:50;;;;;;;52.93;49.30;;;;;;;9.27;100.00;102882.31;1940930;74;33146;-69
2021/10/13 05:12:15;;;;;;;51.33;47.60;;;;;;;9.38;100.00;102877.39;1940860;74;33029;-69
2021/10/13 05:17:39;;;;;;;48.27;44.77;;;;;;;9.46;100.00;102874.33;1940881;74;33042;-69
2021/10/13 05:23:07;;;;;;;49.57;46.37;;;;;;;9.54;100.00;102878.75;1940743;74;33050;-69
2021/10/13 05:28:31;;;;;;;50.17;46.87;;;;;;;9.56;100.00;102882.12;1940743;74;33036;-69
2021/10/13 05:33:56;;;;;;;50.20;46.80;;;;;;;9.47;100.00;102891.29;1940814;74;32972;-69
2021/10/13 05:39:20;;;;;;;49.80;46.53;;;;;;;9.71;100.00;102887.33;1940728;74;32979;-69
2021/10/13 05:44:51;;;;;;;48.80;45.47;;;;;;;10.01;100.00;102884.92;1941008;74;31538;-69
2021/10/13 05:50:16;;;;;;;49.63;45.97;;;;;;;10.31;100.00;102885.56;1940754;74;33129;-69
2021/10/13 05:55:40;;;;;;;49.83;46.37;;;;;;;10.30;100.00;102888.03;1940914;74;31121;-69
2021/10/13 06:01:05;;;;;;;48.03;44.53;;;;;;;10.48;100.00;102893.56;1940781;74;33046;-69
2021/10/13 06:06:29;;;;;;;48.30;44.93;;;;;;;10.57;100.00;102898.25;1940954;74;33476;-69
2021/10/13 06:11:53;;;;;;;48.70;45.20;;;;;;;10.62;100.00;102901.14;1940764;74;33062;-70
2021/10/13 06:17:20;;;;;;;49.40;46.00;;;;;;;10.73;100.00;102898.44;1940988;74;33503;-69
2021/10/13 06:22:44;;;;;;;49.87;46.40;;;;;;;10.72;100.00;102910.63;1940884;74;33654;-69
2021/10/13 06:28:08;;;;;;;49.87;46.47;;;;;;;10.82;100.00;102914.23;1940773;74;32984;-70
2021/10/13 06:33:33;;;;;;;51.03;47.43;;;;;;;10.85;100.00;102914.61;1940888;74;33044;-70
2021/10/13 06:38:57;;;;;;;48.47;45.27;;;;;;;10.90;100.00;102927.80;1941004;74;33492;-69
2021/10/13 06:44:22;;;;;;;48.90;45.50;;;;;;;11.01;100.00;102923.34;1941025;74;33622;-70
2021/10/13 06:49:46;;;;;;;53.30;49.60;;;;;;;11.06;100.00;102933.22;1940824;74;32968;-69
2021/10/13 06:55:11;;;;;;;49.37;46.07;;;;;;;11.12;100.00;102922.00;1941070;74;32971;-69
2021/10/13 07:00:36;;;;;;;51.30;47.63;;;;;;;11.18;100.00;102926.59;1941016;74;32980;-69
2021/10/13 07:06:06;;;;;;;49.60;45.93;;;;;;;11.19;100.00;102922.73;1940928;74;33529;-69
2021/10/13 07:11:32;;;;;;;47.93;44.83;;;;;;;11.30;100.00;102930.78;1940938;74;32986;-69
2021/10/13 07:16:56;;;;;;;48.30;45.10;;;;;;;11.43;100.00;102934.20;1941052;74;33077;-74
2021/10/13 07:22:20;;;;;;;49.40;45.90;;;;;;;11.53;100.00;102921.08;1940887;74;33575;-73
2021/10/13 07:27:45;;;;;;;49.00;45.77;;;;;;;11.58;100.00;102928.70;1940908;74;33181;-75
2021/10/13 07:33:11;;;;;;;48.73;45.20;;;;;;;11.64;100.00;102946.67;1940834;74;33044;-70
2021/10/13 07:38:37;;;;;;;47.03;43.63;;;;;;;11.82;100.00;102942.41;1940741;74;32988;-75
2021/10/13 07:44:02;;;;;;;49.73;46.63;;;;;;;11.86;100.00;102942.77;1940856;74;33050;-71
2021/10/13 07:49:26;;;;;;;51.10;47.67;;;;;;;11.86;100.00;102950.58;1941077;74;33462;-74
2021/10/13 07:54:50;;;;;;;48.87;45.67;;;;;;;11.91;100.00;102963.78;1941040;74;33465;-71
2021/10/13 08:00:19;;;;;;;47.47;44.13;;;;;;;12.01;100.00;102961.79;1940868;74;33096;-71
2021/10/13 08:05:46;;;;;;;49.80;46.10;;;;;;;11.98;100.00;102951.14;1940985;74;33518;-71
2021/10/13 08:11:11;;;;;;;45.00;42.00;;;;;;;12.09;100.00;102954.45;1941004;74;33525;-74
2021/10/13 08:16:35;;;;;;;43.63;40.67;;;;;;;12.28;100.00;102969.91;1940954;74;33088;-71
2021/10/13 08:22:00;;;;;;;44.53;41.83;;;;;;;12.30;100.00;102961.63;1940721;74;33079;-71
2021/10/13 08:27:24;;;;;;;45.33;42.33;;;;;;;12.27;100.00;102966.30;1940915;74;33624;-71
2021/10/13 08:32:48;;;;;;;43.07;40.27;;;;;;;12.37;100.00;102956.44;1940908;74;33153;-74
2021/10/13 08:38:19;;;;;;;44.07;41.10;;;;;;;12.59;100.00;102942.14;1940808;74;33074;-71
2021/10/13 08:43:45;;;;;;;42.40;39.50;;;;;;;12.83;100.00;102942.91;1940863;74;32999;-72
2021/10/13 08:49:11;;;;;;;41.00;38.30;;;;;;;12.69;100.00;102945.14;1940743;74;33048;-71
2021/10/13 08:54:43;;;;;;;35.77;33.70;;;;;;;12.92;100.00;102926.89;1941034;74;33047;-71
2021/10/13 09:00:23;;;;;;;35.50;33.30;;;;;;;13.10;100.00;102921.13;1940953;74;33035;-72
2021/10/13 09:05:47;;;;;;;35.60;33.37;;;;;;;13.19;100.00;102909.00;1940907;74;32977;-73
2021/10/13 09:11:13;;;;;;;35.57;33.40;;;;;;;13.40;100.00;102892.89;1940787;74;32956;-74
2021/10/13 09:16:53;;;;;;;34.00;31.77;;;;;;;13.60;100.00;102900.77;1940953;74;32946;-71
2021/10/13 09:22:20;;;;;;;35.47;33.07;;;;;;;13.65;100.00;102882.66;1940862;74;33476;-71
2021/10/13 09:27:47;;;;;;;37.40;35.13;;;;;;;13.80;100.00;102879.26;1940859;74;33061;-71
2021/10/13 09:33:14;;;;;;;38.63;36.43;;;;;;;14.07;100.00;102891.39;1940822;74;33031;-73
2021/10/13 09:38:45;;;;;;;30.87;29.07;;;;;;;14.33;100.00;102878.03;1940949;74;33069;-73
2021/10/13 09:44:16;;;;;;;31.30;29.50;;;;;;;14.30;100.00;102884.13;1940852;74;32958;-73
2021/10/13 09:49:42;;;;;;;33.53;31.27;;;;;;;14.20;100.00;102885.41;1940916;74;32957;-73
2021/10/13 09:55:12;;;;;;;35.97;33.67;;;;;;;14.25;100.00;102881.84;1940765;74;33066;-71
2021/10/13 10:00:38;;;;;;;32.87;30.97;;;;;;;14.35;100.00;102892.61;1940931;74;32955;-70
2021/10/13 10:06:03;;;;;;;34.70;32.40;;;;;;;14.35;100.00;102880.03;1940745;74;33031;-73
2021/10/13 10:08:52;;;;;;;33.73;31.83;;;;;;;14.41;100.00;102886.53;1904739;75;26288;-72
2021/10/13 10:14:46;;;;;;;33.50;31.60;;;;;;;14.61;100.00;102875.58;1940990;74;33470;-72
2021/10/13 10:17:36;;;;;;;31.93;30.13;;;;;;;14.65;100.00;102881.48;1904751;75;26207;-72
2021/10/13 10:23:05;;;;;;;29.30;27.73;;;;;;;14.86;100.00;102873.03;1940866;74;32978;-71
2021/10/13 10:28:58;;;;;;;30.13;28.57;;;;;;;15.04;100.00;102866.21;1940948;74;33011;-71
2021/10/13 10:34:33;;;;;;;31.33;29.63;;;;;;;15.23;100.00;102877.86;1940966;74;33130;-73
2021/10/13 10:40:13;;;;;;;32.60;30.53;;;;;;;15.14;100.00;102873.31;1941061;74;32966;-79
2021/10/13 10:45:54;;;;;;;29.47;27.93;;;;;;;15.06;100.00;102865.38;1940926;74;33044;-70
2021/10/13 10:51:19;;;;;;;31.80;29.97;;;;;;;15.13;100.00;102856.77;1940833;74;33028;-73
2021/10/13 10:56:44;;;;;;;32.63;30.70;;;;;;;15.31;100.00;102861.97;1940740;74;33008;-75
2021/10/13 11:02:28;;;;;;;31.20;29.33;;;;;;;15.36;100.00;102864.81;2009671;71;33373;-73
2021/10/13 11:07:59;;;;;;;33.13;31.10;;;;;;;15.45;100.00;102859.81;1940993;74;33057;-73
2021/10/13 11:13:26;;;;;;;32.20;30.40;;;;;;;15.64;100.00;102849.62;1940778;74;33022;-71
2021/10/13 11:18:51;;;;;;;33.70;31.80;;;;;;;15.77;100.00;102851.94;1940903;74;33552;-74
2021/10/13 11:24:19;;;;;;;34.33;32.33;;;;;;;15.82;100.00;102864.03;1940719;74;33091;-71
2021/10/13 11:29:50;;;;;;;36.10;34.03;;;;;;;15.82;100.00;102853.37;1941078;74;33544;-74
2021/10/13 11:35:16;;;;;;;36.17;34.00;;;;;;;15.71;100.00;102858.06;1940947;74;32939;-74
2021/10/13 11:40:44;;;;;;;36.63;34.33;;;;;;;15.78;100.00;102855.03;1940923;74;32998;-73
2021/10/13 11:46:10;;;;;;;39.70;36.80;;;;;;;15.99;100.00;102851.22;1925001;74;28665;-69
2021/10/13 11:51:34;;;;;;;36.27;34.07;;;;;;;16.53;100.00;102852.25;1941013;74;31073;-72
2021/10/13 11:57:00;;;;;;;37.33;35.03;;;;;;;16.08;100.00;102845.94;1940952;74;32952;-72
2021/10/13 12:02:24;;;;;;;38.13;35.93;;;;;;;15.83;100.00;102849.47;1941087;74;31555;-72
2021/10/13 12:07:51;;;;;;;38.83;36.47;;;;;;;15.97;100.00;102850.64;1940809;74;33045;-71
2021/10/13 12:13:18;;;;;;;39.53;37.13;;;;;;;15.74;100.00;102841.28;1940841;74;32964;-72
2021/10/13 12:19:12;;;;;;;40.13;37.53;;;;;;;15.81;100.00;102843.27;2009635;71;33481;-70
2021/10/13 12:24:52;;;;;;;41.43;38.93;;;;;;;15.96;100.00;102841.12;1940697;74;33111;-69
2021/10/13 12:30:38;;;;;;;41.23;38.60;;;;;;;16.05;100.00;102836.09;1940941;74;33479;-72
2021/10/13 12:36:11;;;;;;;39.77;37.37;;;;;;;16.25;100.00;102836.19;1941155;74;32976;-70
2021/10/13 12:41:43;;;;;;;40.63;38.33;;;;;;;16.31;100.00;102832.82;1940968;74;33078;-72
2021/10/13 12:47:14;;;;;;;39.27;36.77;;;;;;;16.44;100.00;102837.06;1940895;74;33085;-72
2021/10/13 12:52:39;;;;;;;36.80;34.80;;;;;;;16.56;100.00;102836.28;1940895;74;33565;-71
2021/10/13 12:58:11;;;;;;;39.00;36.73;;;;;;;16.53;100.00;102833.45;1940909;74;33607;-71
2021/10/13 13:03:36;;;;;;;40.63;38.33;;;;;;;16.39;100.00;102828.08;1940782;74;33016;-72
2021/10/13 13:09:02;;;;;;;40.50;38.20;;;;;;;16.49;100.00;102828.11;1940959;74;33141;-70
2021/10/13 13:14:26;;;;;;;41.47;38.97;;;;;;;16.62;100.00;102827.61;1940867;74;31053;-71
2021/10/13 13:19:50;;;;;;;39.10;36.90;;;;;;;16.47;100.00;102828.12;1940974;74;31047;-71
2021/10/13 13:25:15;;;;;;;41.33;39.03;;;;;;;16.42;100.00;102824.73;1941043;74;31599;-71
2021/10/13 13:30:39;;;;;;;44.13;41.53;;;;;;;16.44;100.00;102820.23;1940842;74;31046;-70
2021/10/13 13:36:05;;;;;;;41.87;39.30;;;;;;;16.44;100.00;102813.22;1940946;74;31538;-71
2021/10/13 13:41:30;;;;;;;39.53;37.27;;;;;;;16.40;100.00;102809.58;1940921;74;31114;-72
2021/10/13 13:46:54;;;;;;;41.30;38.80;;;;;;;16.68;100.00;102811.64;1940840;74;31057;-71
2021/10/13 13:52:19;;;;;;;42.87;40.37;;;;;;;16.48;100.00;102808.73;1940833;74;31103;-68
2021/10/13 13:57:43;;;;;;;40.87;38.47;;;;;;;16.70;100.00;102813.59;1940841;74;31109;-69
2021/10/13 14:03:09;;;;;;;42.63;40.03;;;;;;;16.71;100.00;102815.28;1940801;74;31046;-70
2021/10/13 14:08:33;;;;;;;43.97;41.40;;;;;;;16.58;100.00;102814.41;1940838;74;31191;-69
2021/10/13 14:14:04;;;;;;;42.97;40.33;;;;;;;16.44;100.00;102817.43;1940965;74;33576;-70
2021/10/13 14:19:35;;;;;;;46.57;43.87;;;;;;;16.28;100.00;102818.80;1940800;74;31063;-71
2021/10/13 14:24:59;;;;;;;44.63;41.83;;;;;;;16.24;100.00;102822.44;1940756;74;31052;-71
2021/10/13 14:30:24;;;;;;;42.70;39.93;;;;;;;16.36;100.00;102823.88;1941003;74;31525;-68
2021/10/13 14:35:48;;;;;;;43.83;41.23;;;;;;;16.64;100.00;102820.33;1940817;74;31057;-68
2021/10/13 14:41:13;;;;;;;42.17;39.67;;;;;;;16.67;100.00;102815.00;1941091;74;31627;-71
2021/10/13 14:46:38;;;;;;;41.53;38.90;;;;;;;16.79;100.00;102814.72;1940865;74;31533;-70
2021/10/13 14:52:23;;;;;;;43.30;40.60;;;;;;;16.88;100.00;102807.99;2011028;71;32922;-70
2021/10/13 14:57:47;;;;;;;44.23;41.73;;;;;;;16.93;100.00;102812.21;1940941;74;31057;-69
2021/10/13 15:03:12;;;;;;;44.47;41.63;;;;;;;16.88;100.00;102814.45;1941001;74;31149;-70
2021/10/13 15:08:36;;;;;;;46.77;43.97;;;;;;;16.90;100.00;102809.97;1940961;74;31167;-71
2021/10/13 15:14:00;;;;;;;44.50;41.80;;;;;;;16.97;100.00;102809.13;1941125;74;31133;-71
2021/10/13 15:19:25;;;;;;;46.67;44.00;;;;;;;16.97;100.00;102809.97;1940778;74;31175;-71
2021/10/13 15:24:50;;;;;;;45.20;42.03;;;;;;;17.00;100.00;102809.95;1941005;74;31537;-71
2021/10/13 15:30:18;;;;;;;44.70;42.00;;;;;;;17.03;100.00;102804.61;1941017;74;31147;-72
2021/10/13 15:35:45;;;;;;;44.43;41.67;;;;;;;17.06;100.00;102797.05;1941094;74;31753;-72
2021/10/13 15:41:09;;;;;;;44.37;41.77;;;;;;;16.98;100.00;102793.41;1940955;74;31547;-72
2021/10/13 15:46:34;;;;;;;44.23;41.53;;;;;;;16.97;100.00;102790.31;1941010;74;31690;-71
2021/10/13 15:51:59;;;;;;;44.87;42.27;;;;;;;16.96;100.00;102792.83;1940779;74;33078;-70
2021/10/13 15:57:24;;;;;;;47.23;44.47;;;;;;;16.90;100.00;102793.94;1941004;74;31513;-71
2021/10/13 16:02:49;;;;;;;45.73;43.03;;;;;;;16.78;100.00;102796.19;1941039;74;31636;-71
2021/10/13 16:08:14;;;;;;;48.00;45.10;;;;;;;16.76;100.00;102799.30;1940727;74;31149;-72
2021/10/13 16:13:38;;;;;;;49.73;46.67;;;;;;;16.75;100.00;102794.80;1940984;74;31125;-72
2021/10/13 16:19:03;;;;;;;46.23;43.33;;;;;;;16.78;100.00;102794.78;1941043;74;31106;-71
2021/10/13 16:24:27;;;;;;;47.77;44.53;;;;;;;16.76;100.00;102783.86;1940904;74;31096;-71
2021/10/13 16:29:51;;;;;;;46.67;43.80;;;;;;;16.74;100.00;102783.28;1940773;74;31043;-72
2021/10/13 16:35:16;;;;;;;47.93;44.93;;;;;;;16.79;100.00;102786.66;1940914;74;31056;-72
2021/10/13 16:40:40;;;;;;;49.37;46.27;;;;;;;16.71;100.00;102791.42;1940979;74;31153;-72
2021/10/13 16:46:05;;;;;;;49.83;46.83;;;;;;;16.60;100.00;102786.94;1941017;74;31526;-72
2021/10/13 16:51:29;;;;;;;47.57;44.57;;;;;;;16.63;100.00;102793.38;1940717;74;31126;-72
2021/10/13 16:56:53;;;;;;;46.53;43.40;;;;;;;16.61;100.00;102797.02;1940955;74;31546;-73
2021/10/13 17:02:18;;;;;;;46.13;43.23;;;;;;;16.63;100.00;102797.59;1940823;74;31028;-70
2021/10/13 17:07:44;;;;;;;48.80;45.70;;;;;;;16.54;100.00;102795.02;1940858;74;31245;-72
2021/10/13 17:13:11;;;;;;;49.60;46.47;;;;;;;16.45;100.00;102796.13;1940801;74;31053;-71
2021/10/13 17:18:35;;;;;;;48.70;45.60;;;;;;;16.49;100.00;102789.39;1940768;74;33074;-72
2021/10/13 17:24:01;;;;;;;49.13;46.03;;;;;;;16.40;100.00;102789.94;1940979;74;31146;-72
2021/10/13 17:29:25;;;;;;;47.03;43.83;;;;;;;16.36;100.00;102793.58;1940822;74;31124;-72
2021/10/13 17:34:52;;;;;;;51.23;47.77;;;;;;;16.18;100.00;102799.69;1940992;74;31622;-71
2021/10/13 17:40:16;;;;;;;50.53;47.07;;;;;;;15.94;100.00;102805.79;1940771;74;31041;-70
2021/10/13 17:45:41;;;;;;;54.20;50.67;;;;;;;15.85;100.00;102802.38;1940885;74;31168;-69
2021/10/13 17:51:12;;;;;;;53.23;49.77;;;;;;;15.73;100.00;102806.81;1940868;74;31026;-71
2021/10/13 17:56:36;;;;;;;52.03;48.33;;;;;;;15.47;100.00;102807.74;1940988;74;32966;-69
2021/10/13 18:02:02;;;;;;;55.13;51.37;;;;;;;15.45;100.00;102817.80;1940839;74;33031;-70
2021/10/13 18:07:33;;;;;;;56.07;52.17;;;;;;;15.33;100.00;102838.72;1940907;74;33484;-70
2021/10/13 18:12:58;;;;;;;60.90;56.60;;;;;;;15.38;100.00;102830.36;1940924;74;33456;-71
2021/10/13 18:18:23;;;;;;;63.47;58.70;;;;;;;15.39;100.00;102831.50;1940800;74;31022;-71
2021/10/13 18:23:47;;;;;;;56.83;53.03;;;;;;;15.18;100.00;102828.27;1940848;74;32971;-69
2021/10/13 18:29:12;;;;;;;58.50;54.20;;;;;;;15.01;100.00;102835.97;1940955;74;33071;-70
2021/10/13 18:34:37;;;;;;;62.50;57.50;;;;;;;14.93;100.00;102847.06;1940996;74;33524;-71
2021/10/13 18:40:02;;;;;;;60.30;55.80;;;;;;;14.95;100.00;102844.86;1940761;74;31081;-71
2021/10/13 18:45:26;;;;;;;57.43;53.37;;;;;;;14.93;100.00;102839.25;1940804;74;33029;-71
2021/10/13 18:50:51;;;;;;;56.63;52.63;;;;;;;14.87;100.00;102843.10;1940761;74;33070;-71
2021/10/13 18:56:15;;;;;;;55.47;51.37;;;;;;;14.77;100.00;102856.98;1940711;74;33009;-71
2021/10/13 19:01:42;;;;;;;56.00;52.00;;;;;;;14.45;100.00;102856.39;1940837;74;32977;-68
2021/10/13 19:07:07;;;;;;;58.27;54.07;;;;;;;14.37;100.00;102856.02;1940715;74;32959;-69
2021/10/13 19:12:31;;;;;;;60.37;56.10;;;;;;;14.33;100.00;102864.60;1940933;74;33027;-69
2021/10/13 19:17:55;;;;;;;54.53;50.67;;;;;;;14.25;100.00;102853.30;1940958;74;33528;-70
2021/10/13 19:23:20;;;;;;;58.83;54.67;;;;;;;14.27;100.00;102854.45;1940814;74;33035;-68
2021/10/13 19:28:45;;;;;;;56.53;52.63;;;;;;;14.28;100.00;102849.16;1940939;74;33127;-71
2021/10/13 19:34:09;;;;;;;58.33;53.93;;;;;;;14.13;100.00;102848.41;1940883;74;32964;-71
2021/10/13 19:39:34;;;;;;;57.00;52.93;;;;;;;13.96;100.00;102852.66;1941029;74;33447;-71
2021/10/13 19:44:59;;;;;;;57.37;53.37;;;;;;;13.99;100.00;102849.92;1940919;74;33065;-68
2021/10/13 19:50:24;;;;;;;57.63;53.50;;;;;;;14.07;100.00;102856.45;1940809;74;32945;-68
2021/10/13 19:55:49;;;;;;;57.87;53.77;;;;;;;14.01;100.00;102853.28;1940875;74;33046;-72
2021/10/13 20:01:14;;;;;;;55.90;51.90;;;;;;;13.95;100.00;102858.50;1940853;74;33047;-69
2021/10/13 20:06:38;;;;;;;55.77;51.77;;;;;;;13.80;100.00;102863.34;1940950;74;33452;-70
2021/10/13 20:12:22;;;;;;;57.37;53.27;;;;;;;13.80;100.00;102858.31;2009529;71;32807;-69
2021/10/13 20:18:07;;;;;;;55.50;51.60;;;;;;;13.78;100.00;102866.12;2009238;71;32809;-72
2021/10/13 20:23:36;;;;;;;54.57;50.63;;;;;;;13.66;100.00;102860.08;1907098;75;33139;-71
2021/10/13 20:29:00;;;;;;;55.50;51.50;;;;;;;13.63;100.00;102868.13;1940720;74;33200;-71
2021/10/13 20:34:25;;;;;;;54.37;50.57;;;;;;;13.60;100.00;102869.50;1940507;74;32957;-71
2021/10/13 20:39:49;;;;;;;54.67;50.93;;;;;;;13.75;100.00;102876.38;1940663;74;33527;-71
2021/10/13 20:45:17;;;;;;;54.33;50.23;;;;;;;13.68;100.00;102866.27;1940741;74;33473;-71
2021/10/13 20:50:48;;;;;;;54.07;49.97;;;;;;;13.59;100.00;102864.16;1971961;72;32955;-70
2021/10/13 20:56:12;;;;;;;55.20;51.27;;;;;;;13.45;100.00;102852.50;1940565;74;33211;-70
2021/10/13 21:01:37;;;;;;;59.40;55.23;;;;;;;13.34;100.00;102857.63;1940750;74;33421;-71
2021/10/13 21:07:04;;;;;;;59.30;55.20;;;;;;;13.42;100.00;102847.43;1940524;74;33140;-70
2021/10/13 21:12:29;;;;;;;61.23;56.73;;;;;;;13.51;100.00;102841.71;1940551;74;32964;-71
2021/10/13 21:17:54;;;;;;;60.53;56.23;;;;;;;13.58;100.00;102848.50;1940789;74;33428;-70
2021/10/13 21:23:19;;;;;;;60.97;56.70;;;;;;;13.61;100.00;102864.18;1940622;74;33516;-69
2021/10/13 21:28:44;;;;;;;60.43;56.13;;;;;;;13.14;100.00;102857.28;1940649;74;33000;-70
2021/10/13 21:34:09;;;;;;;59.53;55.60;;;;;;;12.94;100.00;102863.88;1940588;74;33019;-71
2021/10/13 21:39:33;;;;;;;59.33;55.40;;;;;;;12.64;100.00;102856.66;1940584;74;33451;-71
2021/10/13 21:44:58;;;;;;;62.87;58.47;;;;;;;12.76;100.00;102863.02;1940534;74;33087;-71
2021/10/13 21:50:23;;;;;;;61.30;57.10;;;;;;;12.39;100.00;102860.89;1940596;74;32942;-70
2021/10/13 21:55:49;;;;;;;58.93;55.00;;;;;;;12.41;100.00;102855.36;1940504;74;32961;-69
2021/10/13 22:01:14;;;;;;;60.00;55.90;;;;;;;12.45;100.00;102871.88;1940544;74;33011;-71
2021/10/13 22:06:39;;;;;;;58.47;54.37;;;;;;;12.14;100.00;102869.59;1940691;74;33424;-70
2021/10/13 22:12:05;;;;;;;59.67;55.57;;;;;;;12.05;100.00;102872.45;1940695;74;32956;-70
2021/10/13 22:17:29;;;;;;;59.27;55.17;;;;;;;12.14;100.00;102864.02;1940617;74;33379;-71
2021/10/13 22:22:54;;;;;;;62.03;57.90;;;;;;;12.06;100.00;102866.65;1940418;74;33059;-70
2021/10/13 22:28:18;;;;;;;55.53;51.53;;;;;;;11.97;100.00;102865.34;1940645;74;33080;-71
2021/10/13 22:33:42;;;;;;;55.93;51.93;;;;;;;12.13;100.00;102866.50;1940602;74;33406;-70
2021/10/13 22:39:05;;;;;;;56.67;52.77;;;;;;;11.79;100.00;102867.73;1940556;74;33542;-71
2021/10/13 22:44:30;;;;;;;55.67;51.67;;;;;;;11.78;100.00;102859.60;1940587;74;32955;-70
2021/10/13 22:49:54;;;;;;;54.93;50.97;;;;;;;11.64;100.00;102861.76;1940455;74;33038;-70
2021/10/13 22:55:20;;;;;;;56.73;52.83;;;;;;;11.42;100.00;102849.58;1940469;74;32957;-70
2021/10/13 23:00:45;;;;;;;52.87;49.37;;;;;;;11.31;100.00;102852.64;1940529;74;33076;-71
2021/10/13 23:06:11;;;;;;;54.67;50.97;;;;;;;11.18;100.00;102844.53;1940521;74;33046;-71